createdAt,value
2022-11-15T00:05:40.195Z,26.98
2022-11-15T00:11:05.046Z,27.67
2022-11-15T00:16:28.108Z,24.85
2022-11-15T00:21:51.812Z,15.25
2022-11-15T00:27:15.851Z,31.02
2022-11-15T00:32:40.079Z,25.33
2022-11-15T00:38:04.899Z,28.08
2022-11-15T00:43:27.493Z,24.73
2022-11-15T00:48:50.740Z,28.70
2022-11-15T00:54:16.553Z,34.38
2022-11-15T00:59:39.590Z,32.70
2022-11-15T01:05:02.368Z,41.00
2022-11-15T01:10:27.061Z,59.85
2022-11-15T01:15:49.929Z,46.03
2022-11-15T01:21:15.937Z,59.97
2022-11-15T01:26:40.394Z,16.52
2022-11-15T01:32:03.112Z,60.90
2022-11-15T01:37:28.987Z,113.13
2022-11-15T01:42:53.338Z,41.00
2022-11-15T01:48:16.167Z,96.82
2022-11-15T01:53:41.378Z,26.75
2022-11-15T01:59:10.127Z,30.67
2022-11-15T02:04:34.920Z,22.10
2022-11-15T02:09:58.607Z,34.22
2022-11-15T02:15:29.402Z,45.33
2022-11-15T02:21:08.727Z,35.47
2022-11-15T02:27:03.060Z,37.03
2022-11-15T02:32:36.756Z,25.73
2022-11-15T02:38:02.340Z,41.47
2022-11-15T02:43:48.600Z,34.70
2022-11-15T02:49:15.656Z,40.03
2022-11-15T02:54:38.566Z,31.20
2022-11-15T03:00:08.522Z,51.17
2022-11-15T03:05:40.436Z,35.33
2022-11-15T03:11:11.004Z,43.72
2022-11-15T03:16:38.719Z,48.83
2022-11-15T03:22:07.042Z,93.13
2022-11-15T03:27:34.128Z,46.90
2022-11-15T03:33:02.522Z,66.15
2022-11-15T03:38:31.501Z,77.38
2022-11-15T03:43:59.384Z,141.93
2022-11-15T03:49:28.112Z,96.68
2022-11-15T03:54:55.184Z,49.38
2022-11-15T04:00:18.577Z,93.38
2022-11-15T04:05:41.719Z,84.15
2022-11-15T04:11:06.102Z,100.95
2022-11-15T04:16:28.878Z,45.38
2022-11-15T04:22:09.267Z,92.03
2022-11-15T04:27:33.717Z,69.93
2022-11-15T04:32:56.636Z,59.53
2022-11-15T04:38:19.880Z,91.53
2022-11-15T04:43:46.129Z,107.88
2022-11-15T04:49:11.887Z,56.00
2022-11-15T04:54:37.789Z,47.28
2022-11-15T05:00:04.825Z,87.07
2022-11-15T05:05:30.566Z,58.10
2022-11-15T05:10:56.159Z,103.38
2022-11-15T05:16:27.116Z,117.45
2022-11-15T05:21:51.818Z,102.07
2022-11-15T05:27:17.308Z,56.58
2022-11-15T05:32:47.875Z,46.53
2022-11-15T05:38:13.474Z,20.70
2022-11-15T05:43:42.323Z,30.83
2022-11-15T05:49:14.683Z,38.55
2022-11-15T05:54:41.273Z,37.78
2022-11-15T06:00:07.764Z,25.10
2022-11-15T06:05:34.437Z,35.80
2022-11-15T06:11:00.162Z,26.98
2022-11-15T06:16:25.621Z,13.73
2022-11-15T06:21:52.504Z,14.77
2022-11-15T06:27:19.573Z,11.57
2022-11-15T06:32:45.213Z,13.87
2022-11-15T06:38:14.798Z,12.75
2022-11-15T06:43:38.356Z,13.25
2022-11-15T06:49:03.986Z,10.57
2022-11-15T06:54:32.681Z,11.93
2022-11-15T06:59:55.793Z,11.18
2022-11-15T07:05:18.763Z,17.98
2022-11-15T07:10:44.670Z,12.68
2022-11-15T07:16:11.817Z,14.95
2022-11-15T07:21:35.823Z,21.23
2022-11-15T07:27:01.227Z,23.17
2022-11-15T07:32:25.204Z,16.55
2022-11-15T07:37:57.340Z,13.27
2022-11-15T07:43:22.419Z,22.05
2022-11-15T07:48:46.138Z,22.20
2022-11-15T07:54:11.117Z,14.77
2022-11-15T07:59:37.081Z,32.78
2022-11-15T08:05:02.110Z,32.05
2022-11-15T08:10:26.948Z,18.58
2022-11-15T08:15:57.728Z,23.85
2022-11-15T08:21:24.825Z,34.67
2022-11-15T08:26:48.236Z,19.55
2022-11-15T08:32:12.694Z,24.35
2022-11-15T08:37:35.650Z,40.28
2022-11-15T08:43:00.217Z,36.78
2022-11-15T08:48:26.434Z,20.83
2022-11-15T08:53:51.335Z,42.53
2022-11-15T08:59:16.676Z,28.00
2022-11-15T09:04:43.531Z,26.60
2022-11-15T09:10:09.047Z,40.00
2022-11-15T09:15:34.031Z,34.55
2022-11-15T09:21:00.935Z,49.85
2022-11-15T09:26:24.144Z,20.65
2022-11-15T09:31:46.590Z,71.95
2022-11-15T09:37:10.969Z,15.25
2022-11-15T09:42:50.266Z,18.52
2022-11-15T09:48:31.689Z,15.15
2022-11-15T09:59:51.433Z,37.08
2022-11-15T10:04:56.265Z,17.33
2022-11-15T10:10:19.832Z,22.67
2022-11-15T10:15:24.453Z,24.48
2022-11-15T10:20:30.610Z,24.70
2022-11-15T10:25:37.960Z,60.78
2022-11-15T10:30:44.055Z,17.48
2022-11-15T10:36:09.113Z,17.30
2022-11-15T10:41:15.096Z,13.18
2022-11-15T10:46:45.775Z,20.75
2022-11-15T10:51:50.900Z,16.02
2022-11-15T10:56:59.560Z,16.58
2022-11-15T11:02:04.320Z,20.40
2022-11-15T11:07:23.305Z,20.77
2022-11-15T11:12:33.951Z,20.85
2022-11-15T11:17:53.834Z,29.40
2022-11-15T11:23:05.993Z,28.77
2022-11-15T11:28:28.021Z,25.02
2022-11-15T11:33:35.555Z,20.83
2022-11-15T11:38:56.125Z,20.17
2022-11-15T11:44:14.870Z,20.98
2022-11-15T11:49:25.822Z,21.50
2022-11-15T11:54:37.165Z,13.50
2022-11-15T11:59:52.434Z,15.68
2022-11-15T12:05:12.604Z,14.07
2022-11-15T12:10:25.585Z,12.23
2022-11-15T12:15:37.927Z,15.23
2022-11-15T12:20:52.467Z,21.33
2022-11-15T12:26:01.903Z,17.77
2022-11-15T12:31:15.407Z,16.55
2022-11-15T12:36:38.863Z,17.15
2022-11-15T12:41:44.921Z,13.90
2022-11-15T12:47:06.279Z,18.73
2022-11-15T12:52:11.794Z,16.02
2022-11-15T13:02:38.243Z,14.73
2022-11-15T13:08:00.545Z,19.95
2022-11-15T13:13:07.092Z,16.63
2022-11-15T13:18:43.241Z,15.80
2022-11-15T13:23:48.316Z,19.55
2022-11-15T13:28:55.937Z,15.95
2022-11-15T13:34:17.722Z,23.92
2022-11-15T13:39:31.706Z,16.75
2022-11-15T13:44:36.647Z,17.35
2022-11-15T13:49:43.769Z,18.75
2022-11-15T13:54:56.726Z,35.78
2022-11-15T14:00:06.302Z,17.17
2022-11-15T14:05:19.867Z,28.58
2022-11-15T14:10:30.164Z,30.08
2022-11-15T14:15:36.398Z,37.63
2022-11-15T14:20:42.500Z,40.03
2022-11-15T14:25:55.265Z,30.02
2022-11-15T14:31:02.511Z,39.63
2022-11-15T14:36:15.107Z,42.95
2022-11-15T14:41:25.125Z,40.10
2022-11-15T14:46:29.948Z,33.28
2022-11-15T14:51:38.922Z,58.00
2022-11-15T14:56:49.019Z,86.03
2022-11-15T15:02:02.672Z,100.70
2022-11-15T15:07:08.805Z,45.88
2022-11-15T15:17:27.133Z,50.65
2022-11-15T15:22:33.164Z,50.63
2022-11-15T15:27:37.380Z,73.45
2022-11-15T15:32:41.941Z,73.93
2022-11-15T15:37:48.606Z,36.22
2022-11-15T15:42:52.988Z,42.58
2022-11-15T15:47:57.648Z,43.63
2022-11-15T15:53:05.731Z,85.47
2022-11-15T15:58:12.419Z,57.03
2022-11-15T16:03:16.764Z,50.15
2022-11-15T16:08:24.156Z,61.08
2022-11-15T16:13:29.683Z,43.92
2022-11-15T16:18:34.535Z,44.38
2022-11-15T16:23:40.478Z,43.40
2022-11-15T16:33:48.947Z,51.97
2022-11-15T16:38:54.862Z,60.03
2022-11-15T16:50:52.421Z,48.92
2022-11-15T16:55:58.666Z,42.15
2022-11-15T17:01:03.075Z,48.20
2022-11-15T17:06:10.544Z,53.63
2022-11-15T17:11:17.677Z,38.05
2022-11-15T17:16:21.806Z,50.72
2022-11-15T17:21:33.377Z,40.90
2022-11-15T17:26:40.754Z,38.85
2022-11-15T17:31:45.402Z,43.58
2022-11-15T17:36:51.473Z,67.65
2022-11-15T17:41:55.852Z,42.80
2022-11-15T17:47:00.442Z,28.77
2022-11-15T17:52:06.303Z,74.00
2022-11-15T17:57:10.546Z,107.55
2022-11-15T18:02:14.772Z,41.67
2022-11-15T18:07:20.782Z,40.53
2022-11-15T18:17:30.335Z,55.38
2022-11-15T18:22:36.205Z,55.55
2022-11-15T18:32:44.861Z,198.18
2022-11-15T18:37:50.339Z,83.38
2022-11-15T18:43:01.398Z,53.03
2022-11-15T18:48:25.135Z,42.75
2022-11-15T18:53:41.630Z,48.15
2022-11-15T18:58:50.170Z,97.10
2022-11-15T19:03:58.443Z,63.40
2022-11-15T19:09:07.858Z,58.00
2022-11-15T19:14:18.738Z,66.05
2022-11-15T19:19:27.904Z,62.33
2022-11-15T19:24:39.523Z,50.92
2022-11-15T19:29:47.620Z,53.08
2022-11-15T19:34:54.998Z,45.15
2022-11-15T19:40:17.348Z,43.35
2022-11-15T19:45:29.709Z,40.63
2022-11-15T19:50:55.392Z,40.08
2022-11-15T19:56:12.385Z,45.20
2022-11-15T20:01:26.216Z,36.25
2022-11-15T20:06:39.606Z,42.25
2022-11-15T20:12:14.775Z,40.08
2022-11-15T20:17:24.662Z,40.22
2022-11-15T20:23:12.764Z,38.05
2022-11-15T20:29:01.348Z,39.58
2022-11-15T20:34:20.261Z,41.50
2022-11-15T20:39:39.243Z,46.25
2022-11-15T20:44:52.202Z,47.65
2022-11-15T20:55:43.684Z,48.08
2022-11-15T21:00:49.917Z,43.13
2022-11-15T21:05:55.224Z,47.38
2022-11-15T21:11:16.776Z,33.47
2022-11-15T21:16:22.499Z,25.52
2022-11-15T21:21:26.828Z,30.95
2022-11-15T21:26:31.076Z,35.55
2022-11-15T21:31:37.583Z,24.67
2022-11-15T21:36:41.944Z,26.73
2022-11-15T21:41:46.192Z,24.67
2022-11-15T21:46:52.339Z,15.65
2022-11-15T21:51:56.662Z,25.60
2022-11-15T21:57:00.782Z,27.98
2022-11-15T22:02:18.340Z,19.65
2022-11-15T22:07:22.870Z,19.65
2022-11-15T22:12:29.793Z,17.38
2022-11-15T22:17:59.087Z,19.38
2022-11-15T22:23:03.601Z,21.55
2022-11-15T22:28:08.920Z,17.73
2022-11-15T22:33:14.668Z,15.57
2022-11-15T22:38:19.840Z,15.80
2022-11-15T22:43:25.576Z,15.02
2022-11-15T22:48:33.340Z,15.32
2022-11-15T22:53:41.136Z,15.60
2022-11-15T22:58:45.561Z,16.60
2022-11-15T23:03:51.325Z,15.15
2022-11-15T23:08:55.431Z,16.67
2022-11-15T23:13:59.649Z,12.30
2022-11-15T23:19:07.713Z,15.90
2022-11-15T23:24:13.042Z,14.55
2022-11-15T23:29:20.085Z,14.60
2022-11-15T23:34:26.587Z,15.80
2022-11-15T23:39:30.890Z,16.63
2022-11-15T23:44:35.150Z,14.80
2022-11-15T23:49:41.135Z,13.52
2022-11-15T23:59:49.653Z,13.52
